Řízení letového provozu České republiky  
Aktualizace dat:  25.10.2014 13:08:26 UTC English version
   METEO Zobrazení stránky:  25.10.2014 13:23:48 UTC  
vysvětlivky
METAR EDDB 251250Z 13008KT 9999 FEW008 SCT130 BKN280 08/05 Q1020 NOSIG=
METAR EDDC 251250Z 16012KT CAVOK 09/06 Q1020 NOSIG=
METAR EDDE 251250Z 22007KT 9999 -RA BKN031 12/07 Q1020 NOSIG=
METAR EDDF 251250Z 19004KT 9999 -DZ SCT010 BKN012 12/10 Q1020 NOSIG=
METAR EDDM 251250Z 07005KT 9999 -RA FEW010 OVC120 08/06 Q1022 NOSIG=
METAR EDDN 251250Z 15006KT 9999 -RA SCT013 BKN070 09/07 Q1021 NOSIG=
METAR EDDP 251250Z 20007KT CAVOK 13/08 Q1020 NOSIG=
METAR EDDT 251250Z 14007KT 9000 SCT008 BKN260 08/05 Q1020 TEMPO BKN008=
METAR EDQM 251250Z 20008KT CAVOK 08/05 Q1021=
METAR EPBY 251300Z 14006KT 090V160 9999 OVC014 02/M02 Q1024 =
METAR EPGD 251300Z 17010KT 140V210 9999 BKN015 01/M03 Q1022 =
METAR EPKK 251300Z 06008KT 020V100 CAVOK 09/04 Q1024 =
METAR EPKT 251300Z 16003KT 070V240 9999 BKN026 10/04 Q1024 =
METAR EPLL 251300Z 13008KT 9999 OVC020 05/01 Q1025 =
METAR EPPO 251300Z 15007KT 120V200 7000 BKN012 04/01 Q1023 =
METAR EPRZ 251300Z 10016KT 9999 BKN009 02/M00 Q1027 =
METAR EPWA 251300Z 14012KT 9999 BKN026 03/M01 Q1027 NOSIG=
METAR EPWR 251300Z 16003KT 110V200 9999 SCT026 11/04 Q1022 =
METAR LHBP 251300Z 01004KT CAVOK 10/06 Q1025 NOSIG=
METAR LHSM 251245Z 11003KT 9999 BKN013 08/05 Q1025 NOSIG=
METAR LKCV 251300Z 15004KT 9000 OVC019 08/05 Q1023 NOSIG=
METAR LKKB 251300Z 11004KT 9999 OVC020 07/05 Q1022 NOSIG=
METAR LKKU NIL
METAR LKKV 251300Z 25003KT 9999 BKN018 09/05 Q1021 RMK REG QNH 1018=
METAR LKLN 251300Z AUTO 14004KT //// FEW020 08/05 Q1022=
METAR LKMT 251300Z 23009KT 9999 SCT025 08/05 Q1024 NOSIG RMK REG QNH 1018=
METAR LKNA 251300Z 11005KT 070V150 7000 OVC010 05/04 Q1023 NOSIG=
METAR LKPD 251300Z 21005KT 9999 OVC021 07/04 Q1024 NOSIG=
METAR LKPR 251300Z 21006KT 9999 OVC015 07/04 Q1022 NOSIG RMK REG QNH 1018=
METAR LKTB 251300Z 10003KT 060V130 5000 BR OVC006 06/05 Q1024 NOSIG RMK REG QNH 1018=
METAR LKVO NIL
METAR LOWI 251250Z 27003KT 220V360 9999 SCT080 SCT100 11/04 Q1021 NOSIG=
METAR LOWL 251250Z 19004KT 130V220 9000 FEW014 09/05 Q1022 NOSIG=
METAR LOWS 251250Z VRB03KT 9999 FEW020 SCT300 12/05 Q1021 NOSIG=
METAR LOWW 251250Z 13011KT 9999 FEW011 BKN019 09/06 Q1024 NOSIG=
METAR LZIB 251300Z 14005KT 120V180 9999 FEW010 SCT015 BKN018 08/06 Q1025 NOSIG=
METAR LZKZ 251300Z 07003KT 030V120 CAVOK 12/03 Q1025 NOSIG=
METAR LZPP 251300Z 18005KT 120V210 9999 OVC020 08/04 Q1025=
METAR LZSL 251300Z 22004KT 170V260 9999 FEW047 14/06 Q1023=
METAR LZTT 251300Z VRB02KT 9999 SCT050 07/04 Q1023 NOSIG=
METAR LZZI 251300Z 26006KT 240V300 9999 SCT027 10/05 Q1024=